createdAt,value
2022-08-23T00:02:44.429Z,96.01
2022-08-23T00:05:31.675Z,96.23
2022-08-23T00:08:18.123Z,96.83
2022-08-23T00:11:05.364Z,97.44
2022-08-23T00:13:51.955Z,97.41
2022-08-23T00:16:38.841Z,98.39
2022-08-23T00:19:26.301Z,99.01
2022-08-23T00:22:13.003Z,98.87
2022-08-23T00:25:00.939Z,99.09
2022-08-23T00:27:47.122Z,99.71
2022-08-23T00:30:33.804Z,99.79
2022-08-23T00:33:21.823Z,100.00
2022-08-23T00:36:08.353Z,99.98
2022-08-23T00:38:54.606Z,100.00
2022-08-23T00:41:41.144Z,100.00
2022-08-23T00:44:52.801Z,100.00
2022-08-23T00:47:39.911Z,100.00
2022-08-23T00:50:56.342Z,100.00
2022-08-23T00:53:55.565Z,100.00
2022-08-23T00:56:42.817Z,100.00
2022-08-23T00:59:32.597Z,100.00
2022-08-23T01:02:20.212Z,100.00
2022-08-23T01:05:07.636Z,100.00
2022-08-23T01:07:57.904Z,100.00
2022-08-23T01:10:53.333Z,100.00
2022-08-23T01:13:54.979Z,100.00
2022-08-23T01:17:07.321Z,100.00
2022-08-23T01:20:01.540Z,100.00
2022-08-23T01:22:57.754Z,100.00
2022-08-23T01:25:45.122Z,100.00
2022-08-23T01:28:32.018Z,100.00
2022-08-23T01:31:19.543Z,100.00
2022-08-23T01:34:10.329Z,100.00
2022-08-23T01:36:58.642Z,100.00
2022-08-23T01:39:45.278Z,100.00
2022-08-23T01:45:33.994Z,100.00
2022-08-23T01:48:21.869Z,100.00
2022-08-23T01:51:10.821Z,100.00
2022-08-23T01:53:58.172Z,100.00
2022-08-23T01:56:47.037Z,100.00
2022-08-23T01:59:34.702Z,100.00
2022-08-23T02:02:21.431Z,100.00
2022-08-23T02:05:10.592Z,100.00
2022-08-23T02:08:18.185Z,100.00
2022-08-23T02:11:13.580Z,100.00
2022-08-23T02:14:02.160Z,100.00
2022-08-23T02:17:03.340Z,100.00
2022-08-23T02:19:55.747Z,100.00
2022-08-23T02:22:41.986Z,100.00
2022-08-23T02:25:28.218Z,100.00
2022-08-23T02:28:14.780Z,100.00
2022-08-23T02:31:01.565Z,100.00
2022-08-23T02:33:49.943Z,100.00
2022-08-23T02:36:38.248Z,100.00
2022-08-23T02:39:24.938Z,100.00
2022-08-23T02:42:11.749Z,100.00
2022-08-23T02:45:00.550Z,100.00
2022-08-23T02:47:47.972Z,100.00
2022-08-23T02:50:39.425Z,100.00
2022-08-23T02:53:26.178Z,100.00
2022-08-23T02:56:21.307Z,100.00
2022-08-23T02:59:08.942Z,100.00
2022-08-23T03:01:56.266Z,100.00
2022-08-23T03:04:51.170Z,100.00
2022-08-23T03:07:38.054Z,100.00
2022-08-23T03:10:24.426Z,100.00
2022-08-23T03:13:17.395Z,100.00
2022-08-23T03:16:06.222Z,100.00
2022-08-23T03:18:52.736Z,100.00
2022-08-23T03:21:39.790Z,100.00
2022-08-23T03:24:30.657Z,100.00
2022-08-23T03:27:19.238Z,100.00
2022-08-23T03:30:07.189Z,100.00
2022-08-23T03:33:02.001Z,100.00
2022-08-23T03:35:50.201Z,100.00
2022-08-23T03:38:39.696Z,100.00
2022-08-23T03:41:28.335Z,100.00
2022-08-23T03:44:15.642Z,100.00
2022-08-23T03:47:06.003Z,100.00
2022-08-23T03:49:52.322Z,100.00
2022-08-23T03:52:38.789Z,100.00
2022-08-23T03:55:25.374Z,100.00
2022-08-23T03:58:12.404Z,100.00
2022-08-23T04:00:58.720Z,100.00
2022-08-23T04:03:48.426Z,100.00
2022-08-23T04:06:35.965Z,100.00
2022-08-23T04:09:22.451Z,100.00
2022-08-23T04:12:17.628Z,100.00
2022-08-23T04:15:05.004Z,100.00
2022-08-23T04:17:55.889Z,100.00
2022-08-23T04:20:43.718Z,100.00
2022-08-23T04:23:31.330Z,100.00
2022-08-23T04:26:18.128Z,100.00
2022-08-23T04:29:05.254Z,100.00
2022-08-23T04:31:51.913Z,100.00
2022-08-23T04:34:45.594Z,100.00
2022-08-23T04:37:35.327Z,100.00
2022-08-23T04:40:41.276Z,100.00
2022-08-23T04:43:28.433Z,100.00
2022-08-23T04:46:16.034Z,100.00
2022-08-23T04:49:04.133Z,100.00
2022-08-23T04:51:53.974Z,100.00
2022-08-23T04:54:41.770Z,100.00
2022-08-23T04:57:48.459Z,100.00
2022-08-23T05:00:39.515Z,100.00
2022-08-23T05:03:27.028Z,100.00
2022-08-23T05:06:15.249Z,100.00
2022-08-23T05:09:02.144Z,100.00
2022-08-23T05:11:49.938Z,100.00
2022-08-23T05:14:37.073Z,100.00
2022-08-23T05:17:24.091Z,100.00
2022-08-23T05:20:10.738Z,100.00
2022-08-23T05:23:00.685Z,100.00
2022-08-23T05:25:55.039Z,95.98
2022-08-23T05:28:49.145Z,96.02
2022-08-23T05:31:37.971Z,96.10
2022-08-23T05:34:25.502Z,95.69
2022-08-23T05:37:15.773Z,96.15
2022-08-23T05:40:02.946Z,95.33
2022-08-23T05:42:54.394Z,96.07
2022-08-23T05:45:40.752Z,96.68
2022-08-23T05:48:29.095Z,94.22
2022-08-23T05:51:22.758Z,95.16
2022-08-23T05:54:10.713Z,95.41
2022-08-23T05:56:57.498Z,96.25
2022-08-23T05:59:44.526Z,94.30
2022-08-23T06:02:31.126Z,94.80
2022-08-23T06:05:19.519Z,94.47
2022-08-23T06:08:06.789Z,93.23
2022-08-23T06:11:02.515Z,93.67
2022-08-23T06:13:56.065Z,91.07
2022-08-23T06:16:48.142Z,91.87
2022-08-23T06:19:38.876Z,89.72
2022-08-23T06:22:30.932Z,90.53
2022-08-23T06:25:17.311Z,87.41
2022-08-23T06:28:11.838Z,87.20
2022-08-23T06:30:59.019Z,85.88
2022-08-23T06:33:50.724Z,87.16
2022-08-23T06:37:07.059Z,84.84
2022-08-23T06:40:12.254Z,78.81
2022-08-23T06:43:14.594Z,80.76
2022-08-23T06:46:23.566Z,79.43
2022-08-23T06:49:10.685Z,78.77
2022-08-23T06:52:05.923Z,78.67
2022-08-23T06:55:03.695Z,75.48
2022-08-23T06:58:10.434Z,75.95
2022-08-23T07:01:46.474Z,79.72
2022-08-23T07:04:43.344Z,81.45
2022-08-23T07:07:44.122Z,81.43
2022-08-23T07:10:32.153Z,77.26
2022-08-23T07:13:18.884Z,76.23
2022-08-23T07:16:05.760Z,76.04
2022-08-23T07:18:55.426Z,74.85
2022-08-23T07:21:42.840Z,75.46
2022-08-23T07:24:33.660Z,75.71
2022-08-23T07:27:21.873Z,75.19
2022-08-23T07:30:34.446Z,73.38
2022-08-23T07:33:22.619Z,75.19
2022-08-23T07:36:40.993Z,67.42
2022-08-23T07:39:28.006Z,68.32
2022-08-23T07:42:23.718Z,68.02
2022-08-23T07:45:13.093Z,66.38
2022-08-23T07:48:01.933Z,66.90
2022-08-23T07:51:01.303Z,66.36
2022-08-23T07:53:48.790Z,62.31
2022-08-23T07:56:37.627Z,61.73
2022-08-23T07:59:44.073Z,60.48
2022-08-23T08:02:41.603Z,61.33
2022-08-23T08:05:37.094Z,57.33
2022-08-23T08:08:23.382Z,57.84
2022-08-23T08:11:12.222Z,57.99
2022-08-23T08:13:59.823Z,57.17
2022-08-23T08:16:50.419Z,55.53
2022-08-23T08:19:49.854Z,56.97
2022-08-23T08:22:58.521Z,55.15
2022-08-23T08:25:46.742Z,56.39
2022-08-23T08:28:36.571Z,53.13
2022-08-23T08:31:24.477Z,54.49
2022-08-23T08:34:10.924Z,53.58
2022-08-23T08:36:59.253Z,55.63
2022-08-23T08:39:47.016Z,55.08
2022-08-23T08:42:35.075Z,51.94
2022-08-23T08:45:29.537Z,54.50
2022-08-23T08:48:23.683Z,49.87
2022-08-23T08:51:25.187Z,50.38
2022-08-23T08:54:17.354Z,48.70
2022-08-23T08:57:08.955Z,46.80
2022-08-23T09:00:14.952Z,46.62
2022-08-23T09:03:09.520Z,46.98
2022-08-23T09:06:19.394Z,47.19
2022-08-23T09:09:27.454Z,46.43
2022-08-23T09:12:33.633Z,46.51
2022-08-23T09:15:49.050Z,47.78
2022-08-23T09:18:36.488Z,46.01
2022-08-23T09:21:24.502Z,46.31
2022-08-23T09:24:15.803Z,44.97
2022-08-23T09:27:12.843Z,44.24
2022-08-23T09:30:01.190Z,44.15
2022-08-23T09:32:50.294Z,44.59
2022-08-23T09:35:38.607Z,42.96
2022-08-23T09:38:29.858Z,40.58
2022-08-23T09:41:25.728Z,41.08
2022-08-23T09:44:33.559Z,41.72
2022-08-23T09:47:20.631Z,39.73
2022-08-23T09:50:47.771Z,40.35
2022-08-23T09:53:35.352Z,40.94
2022-08-23T09:56:28.323Z,39.54
2022-08-23T09:59:27.441Z,37.47
2022-08-23T10:02:33.618Z,40.36
2022-08-23T10:05:37.891Z,39.25
2022-08-23T10:08:33.783Z,37.02
2022-08-23T10:11:31.208Z,36.21
2022-08-23T10:14:21.081Z,36.49
2022-08-23T10:17:49.209Z,35.37
2022-08-23T10:20:42.056Z,35.51
2022-08-23T10:23:48.219Z,35.12
2022-08-23T10:26:39.168Z,35.12
2022-08-23T10:29:47.593Z,36.05
2022-08-23T10:32:48.905Z,35.81
2022-08-23T10:35:45.727Z,34.31
2022-08-23T10:38:38.558Z,32.19
2022-08-23T10:41:51.838Z,33.59
2022-08-23T10:45:02.208Z,33.83
2022-08-23T10:48:22.005Z,32.28
2022-08-23T10:51:22.590Z,31.84
2022-08-23T10:54:35.241Z,33.83
2022-08-23T10:57:32.159Z,30.44
2022-08-23T11:00:24.650Z,33.63
2022-08-23T11:03:32.556Z,31.67
2022-08-23T11:06:46.123Z,31.79
2022-08-23T11:09:58.351Z,29.84
2022-08-23T11:12:53.190Z,30.67
2022-08-23T11:15:44.900Z,30.68
2022-08-23T11:18:41.921Z,29.42
2022-08-23T11:21:33.231Z,29.59
2022-08-23T11:24:31.658Z,29.11
2022-08-23T11:27:38.326Z,30.10
2022-08-23T11:30:31.913Z,29.59
2022-08-23T11:33:35.679Z,29.38
2022-08-23T11:36:25.148Z,29.76
2022-08-23T11:39:13.779Z,29.79
2022-08-23T11:42:07.147Z,30.48
2022-08-23T11:44:55.972Z,29.12
2022-08-23T11:47:44.496Z,28.75
2022-08-23T11:50:51.885Z,29.22
2022-08-23T11:53:54.217Z,30.62
2022-08-23T11:56:56.078Z,29.91
2022-08-23T12:00:10.871Z,29.18
2022-08-23T12:03:09.811Z,29.32
2022-08-23T12:05:56.255Z,30.93
2022-08-23T12:09:04.547Z,30.77
2022-08-23T12:11:57.065Z,29.41
2022-08-23T12:14:43.158Z,30.30
2022-08-23T12:17:29.881Z,29.59
2022-08-23T12:20:29.168Z,29.91
2022-08-23T12:23:18.454Z,31.33
2022-08-23T12:26:13.521Z,29.60
2022-08-23T12:29:07.222Z,27.73
2022-08-23T12:32:15.173Z,28.53
2022-08-23T12:35:38.375Z,28.47
2022-08-23T12:38:27.502Z,29.50
2022-08-23T12:41:28.180Z,28.39
2022-08-23T12:44:19.526Z,28.85
2022-08-23T12:47:13.507Z,27.33
2022-08-23T12:50:46.530Z,27.43
2022-08-23T12:53:38.547Z,27.32
2022-08-23T12:56:31.872Z,27.41
2022-08-23T12:59:51.291Z,27.38
2022-08-23T13:02:38.637Z,28.06
2022-08-23T13:05:52.724Z,30.20
2022-08-23T13:08:41.538Z,27.95
2022-08-23T13:11:31.564Z,26.77
2022-08-23T13:14:30.947Z,27.06
2022-08-23T13:17:19.962Z,27.73
2022-08-23T13:20:09.274Z,27.79
2022-08-23T13:22:58.954Z,26.03
2022-08-23T13:25:45.594Z,27.40
2022-08-23T13:28:31.994Z,27.39
2022-08-23T13:31:18.326Z,27.13
2022-08-23T13:34:06.281Z,26.63
2022-08-23T13:36:52.529Z,26.89
2022-08-23T13:39:46.026Z,27.37
2022-08-23T13:42:49.121Z,26.26
2022-08-23T13:45:49.372Z,26.26
2022-08-23T13:48:37.518Z,26.52
2022-08-23T13:51:26.775Z,25.78
2022-08-23T13:54:15.060Z,26.41
2022-08-23T13:57:05.657Z,27.37
2022-08-23T13:59:55.748Z,25.72
2022-08-23T14:02:42.733Z,25.84
2022-08-23T14:05:29.352Z,26.17
2022-08-23T14:08:20.438Z,25.96
2022-08-23T14:11:07.073Z,27.90
2022-08-23T14:13:53.738Z,28.35
2022-08-23T14:16:41.495Z,28.11
2022-08-23T14:22:35.588Z,26.91
2022-08-23T14:25:21.862Z,28.52
2022-08-23T14:28:08.294Z,26.53
2022-08-23T14:30:54.656Z,26.96
2022-08-23T14:33:41.650Z,26.69
2022-08-23T14:36:27.990Z,26.71
2022-08-23T14:39:16.880Z,29.37
2022-08-23T14:42:04.368Z,28.67
2022-08-23T14:44:51.262Z,29.80
2022-08-23T14:47:37.997Z,29.42
2022-08-23T14:50:24.477Z,27.48
2022-08-23T14:53:16.423Z,28.89
2022-08-23T14:56:20.699Z,27.94
2022-08-23T14:59:08.481Z,28.02
2022-08-23T15:01:55.125Z,28.48
2022-08-23T15:04:42.210Z,29.50
2022-08-23T15:07:28.578Z,30.00
2022-08-23T15:13:30.040Z,28.98
2022-08-23T15:16:22.247Z,30.23
2022-08-23T15:19:08.923Z,28.35
2022-08-23T15:21:55.166Z,28.82
2022-08-23T15:24:41.635Z,29.44
2022-08-23T15:27:28.472Z,30.74
2022-08-23T15:30:16.589Z,30.37
2022-08-23T15:33:04.262Z,29.62
2022-08-23T15:35:54.861Z,31.32
2022-08-23T15:38:43.763Z,31.47
2022-08-23T15:41:30.039Z,31.48
2022-08-23T15:44:16.791Z,31.07
2022-08-23T15:47:05.648Z,30.86
2022-08-23T15:49:52.162Z,29.64
2022-08-23T15:52:38.802Z,30.92
2022-08-23T15:55:30.933Z,29.54
2022-08-23T15:58:22.083Z,30.55
2022-08-23T16:01:09.739Z,29.08
2022-08-23T16:03:56.434Z,29.68
2022-08-23T16:06:45.041Z,30.07
2022-08-23T16:09:31.617Z,29.42
2022-08-23T16:12:18.190Z,28.78
2022-08-23T16:15:05.374Z,29.00
2022-08-23T16:17:52.165Z,30.24
2022-08-23T16:20:38.548Z,29.75
2022-08-23T16:23:26.423Z,30.47
2022-08-23T16:26:21.441Z,31.12
2022-08-23T16:29:09.873Z,30.38
2022-08-23T16:31:56.480Z,29.85
2022-08-23T16:34:43.291Z,29.18
2022-08-23T16:37:29.531Z,29.95
2022-08-23T16:40:16.082Z,30.02
2022-08-23T16:43:02.796Z,30.22
2022-08-23T16:45:49.532Z,29.33
2022-08-23T16:48:35.961Z,29.44
2022-08-23T16:51:22.653Z,29.82
2022-08-23T16:54:09.442Z,29.63
2022-08-23T16:56:56.630Z,29.37
2022-08-23T16:59:43.833Z,29.54
2022-08-23T17:02:33.768Z,29.85
2022-08-23T17:05:20.493Z,30.23
2022-08-23T17:08:06.895Z,30.95
2022-08-23T17:10:53.287Z,32.28
2022-08-23T17:13:40.102Z,33.92
2022-08-23T17:16:26.562Z,32.56
2022-08-23T17:19:14.270Z,31.66
2022-08-23T17:22:00.690Z,31.47
2022-08-23T17:24:47.222Z,30.71
2022-08-23T17:27:33.562Z,30.25
2022-08-23T17:30:22.045Z,30.24
2022-08-23T17:33:09.166Z,31.10
2022-08-23T17:35:55.449Z,30.96
2022-08-23T17:38:41.618Z,31.75
2022-08-23T17:41:28.599Z,32.18
2022-08-23T17:44:15.811Z,31.58
2022-08-23T17:47:07.053Z,31.62
2022-08-23T17:49:55.110Z,31.76
2022-08-23T17:52:41.501Z,33.07
2022-08-23T17:55:28.893Z,33.19
2022-08-23T17:58:19.849Z,32.29
2022-08-23T18:01:06.886Z,31.84
2022-08-23T18:03:53.983Z,32.76
2022-08-23T18:06:40.603Z,32.32
2022-08-23T18:09:26.974Z,32.52
2022-08-23T18:12:13.357Z,33.62
2022-08-23T18:15:03.390Z,33.15
2022-08-23T18:17:49.833Z,36.13
2022-08-23T18:20:38.578Z,40.16
2022-08-23T18:23:26.169Z,40.55
2022-08-23T18:26:33.583Z,42.28
2022-08-23T18:29:20.721Z,42.20
2022-08-23T18:32:08.193Z,43.08
2022-08-23T18:34:56.902Z,43.90
2022-08-23T18:37:43.163Z,44.82
2022-08-23T18:40:29.877Z,45.09
2022-08-23T18:43:18.131Z,46.20
2022-08-23T18:46:05.090Z,48.24
2022-08-23T18:48:53.709Z,48.87
2022-08-23T18:51:41.621Z,49.21
2022-08-23T18:54:33.059Z,50.47
2022-08-23T18:57:20.269Z,51.21
2022-08-23T19:00:09.914Z,52.06
2022-08-23T19:02:56.533Z,52.42
2022-08-23T19:05:43.398Z,52.12
2022-08-23T19:08:29.501Z,53.45
2022-08-23T19:11:16.246Z,53.65
2022-08-23T19:14:02.950Z,54.47
2022-08-23T19:16:50.879Z,54.44
2022-08-23T19:19:37.462Z,53.62
2022-08-23T19:22:24.350Z,53.42
2022-08-23T19:25:10.845Z,53.80
2022-08-23T19:27:57.161Z,54.88
2022-08-23T19:30:43.935Z,55.43
2022-08-23T19:33:30.285Z,56.25
2022-08-23T19:36:42.693Z,56.36
2022-08-23T19:39:24.574Z,55.91
2022-08-23T19:42:11.830Z,56.26
2022-08-23T19:44:58.415Z,56.23
2022-08-23T19:47:45.313Z,57.45
2022-08-23T19:50:32.467Z,58.80
2022-08-23T19:53:18.566Z,59.45
2022-08-23T19:56:05.217Z,58.72
2022-08-23T19:58:52.411Z,59.05
2022-08-23T20:01:40.083Z,60.61
2022-08-23T20:04:29.726Z,60.21
2022-08-23T20:07:16.013Z,59.58
2022-08-23T20:10:04.430Z,60.21
2022-08-23T20:12:50.602Z,61.20
2022-08-23T20:15:39.083Z,62.62
2022-08-23T20:18:25.586Z,62.82
2022-08-23T20:21:12.144Z,63.36
2022-08-23T20:24:05.415Z,63.58
2022-08-23T20:26:52.157Z,63.83
2022-08-23T20:29:38.650Z,64.45
2022-08-23T20:32:26.325Z,64.17
2022-08-23T20:35:12.554Z,64.59
2022-08-23T20:37:58.997Z,64.04
2022-08-23T20:40:45.611Z,66.25
2022-08-23T20:43:35.730Z,67.31
2022-08-23T20:46:22.192Z,67.89
2022-08-23T20:49:09.582Z,67.79
2022-08-23T20:51:55.999Z,67.87
2022-08-23T20:54:42.503Z,68.62
2022-08-23T20:57:29.101Z,68.88
2022-08-23T21:00:24.566Z,68.88
2022-08-23T21:03:10.802Z,69.35
2022-08-23T21:06:09.502Z,70.14
2022-08-23T21:08:59.903Z,69.94
2022-08-23T21:11:47.981Z,70.10
2022-08-23T21:14:34.953Z,69.85
2022-08-23T21:17:21.158Z,69.36
2022-08-23T21:20:08.403Z,69.62
2022-08-23T21:22:54.503Z,70.55
2022-08-23T21:25:41.370Z,71.60
2022-08-23T21:28:28.842Z,72.07
2022-08-23T21:31:18.267Z,72.34
2022-08-23T21:34:05.350Z,72.68
2022-08-23T21:36:52.222Z,73.17
2022-08-23T21:39:39.198Z,73.88
2022-08-23T21:42:25.956Z,72.83
2022-08-23T21:45:12.382Z,72.16
2022-08-23T21:47:58.774Z,73.67
2022-08-23T21:50:48.473Z,74.21
2022-08-23T21:53:35.187Z,75.13
2022-08-23T21:56:21.938Z,75.60
2022-08-23T21:59:12.516Z,76.32
2022-08-23T22:01:58.843Z,76.38
2022-08-23T22:04:45.503Z,76.80
2022-08-23T22:07:31.806Z,76.75
2022-08-23T22:10:18.313Z,77.88
2022-08-23T22:13:05.716Z,78.27
2022-08-23T22:15:52.930Z,79.16
2022-08-23T22:18:39.528Z,80.22
2022-08-23T22:21:25.890Z,80.18
2022-08-23T22:24:13.715Z,80.55
2022-08-23T22:27:00.373Z,80.96
2022-08-23T22:29:46.597Z,81.30
2022-08-23T22:32:33.338Z,81.92
2022-08-23T22:35:19.609Z,82.25
2022-08-23T22:38:14.385Z,82.59
2022-08-23T22:41:01.534Z,82.96
2022-08-23T22:43:47.897Z,82.81
2022-08-23T22:46:34.929Z,83.57
2022-08-23T22:49:21.390Z,83.87
2022-08-23T22:52:08.409Z,84.98
2022-08-23T22:54:54.647Z,85.46
2022-08-23T22:57:40.969Z,84.88
2022-08-23T23:00:27.893Z,84.59
2022-08-23T23:03:15.026Z,84.73
2022-08-23T23:06:01.950Z,84.60
2022-08-23T23:08:49.415Z,85.47
2022-08-23T23:11:36.574Z,86.91
2022-08-23T23:14:25.029Z,85.93
2022-08-23T23:17:11.247Z,85.75
2022-08-23T23:20:16.150Z,86.99
2022-08-23T23:23:02.528Z,87.34
2022-08-23T23:25:50.229Z,88.03
2022-08-23T23:28:36.685Z,87.63
2022-08-23T23:31:23.494Z,88.66
2022-08-23T23:34:10.152Z,89.48
2022-08-23T23:36:57.910Z,89.24
2022-08-23T23:39:44.927Z,89.71
2022-08-23T23:42:31.354Z,89.99
2022-08-23T23:45:18.262Z,90.20
2022-08-23T23:48:04.630Z,91.02
2022-08-23T23:50:54.916Z,91.31
2022-08-23T23:53:41.275Z,91.78
2022-08-23T23:56:29.422Z,92.82
2022-08-23T23:59:16.115Z,93.95
